Time;durP1;ratioP1;P1;durP2;ratioP2;P2;SDS_P1;SDS_P2;PMS_P1;PMS_P2;Temp;Humidity;BMP_temperature;BMP_pressure;BME280_temperature;BME280_humidity;BME280_pressure;Samples;Min_cycle;Max_cycle;Signal;HPM_P1;HPM_P2
2022/06/14 00:01:30;;;;;;;1.38;0.60;;;;;;;11.19;100.00;98922.28;15280625;19;20026;-55
2022/06/14 00:06:36;;;;;;;1.52;0.60;;;;;;;11.17;100.00;98921.59;15276366;19;20428;-52
2022/06/14 00:11:46;;;;;;;1.15;0.60;;;;;;;11.17;100.00;98919.72;15271153;19;20014;-53
2022/06/14 00:16:51;;;;;;;2.00;0.65;;;;;;;11.12;100.00;98913.09;15275951;19;20014;-53
2022/06/14 00:22:01;;;;;;;1.13;0.60;;;;;;;11.07;100.00;98922.53;15277789;19;20480;-53
2022/06/14 00:27:10;;;;;;;1.00;0.57;;;;;;;10.99;100.00;98919.75;15273190;19;20015;-51
2022/06/14 00:32:15;;;;;;;3.20;0.82;;;;;;;10.94;100.00;98925.56;15274422;19;20018;-55
2022/06/14 00:37:22;;;;;;;1.95;0.70;;;;;;;10.86;100.00;98927.34;15277001;19;20018;-56
2022/06/14 00:42:29;;;;;;;2.45;0.70;;;;;;;10.76;100.00;98933.59;15301211;19;20018;-52
2022/06/14 00:47:38;;;;;;;1.70;0.60;;;;;;;10.69;100.00;98934.38;15299438;19;20019;-53
2022/06/14 00:52:46;;;;;;;1.52;0.80;;;;;;;10.64;100.00;98942.91;15303668;19;20014;-50
2022/06/14 00:58:00;;;;;;;1.45;0.60;;;;;;;10.60;100.00;98947.72;15303154;19;20010;-56
2022/06/14 01:03:13;;;;;;;2.03;0.80;;;;;;;10.56;100.00;98945.47;15296786;19;20045;-54
2022/06/14 01:08:18;;;;;;;1.38;0.60;;;;;;;10.50;100.00;98943.41;15305226;19;20017;-55
2022/06/14 01:13:25;;;;;;;1.40;0.60;;;;;;;10.46;100.00;98950.94;15301989;19;20010;-51
2022/06/14 01:18:32;;;;;;;1.42;0.70;;;;;;;10.41;100.00;98951.34;15295512;19;20482;-53
2022/06/14 01:23:39;;;;;;;1.70;0.57;;;;;;;10.34;100.00;98950.22;15299585;19;20030;-55
2022/06/14 01:28:49;;;;;;;4.60;0.80;;;;;;;10.29;100.00;98952.50;15305022;19;20018;-52
2022/06/14 01:33:59;;;;;;;1.77;0.80;;;;;;;10.22;100.00;98946.00;15294375;19;20023;-50
2022/06/14 01:39:10;;;;;;;2.60;1.00;;;;;;;10.19;100.00;98952.53;15300442;19;20021;-55
2022/06/14 01:44:37;;;;;;;2.67;0.70;;;;;;;10.07;100.00;98943.75;15298013;19;20398;-54
2022/06/14 01:55:22;;;;;;;1.80;0.80;;;;;;;9.90;100.00;98956.13;15283240;19;20042;-51
2022/06/14 02:00:32;;;;;;;2.08;0.80;;;;;;;9.86;100.00;98968.19;15286662;19;20014;-51
2022/06/14 02:05:40;;;;;;;1.80;0.65;;;;;;;9.83;100.00;98968.47;15276996;19;20487;-51
2022/06/14 02:10:56;;;;;;;2.33;1.00;;;;;;;9.76;100.00;98970.03;15285979;19;20027;-50
2022/06/14 02:16:07;;;;;;;1.80;0.63;;;;;;;9.68;100.00;98981.50;15280696;19;20025;-51
2022/06/14 02:21:17;;;;;;;1.63;0.63;;;;;;;9.66;100.00;98984.31;15279133;19;20011;-54
2022/06/14 02:26:31;;;;;;;1.90;0.95;;;;;;;9.62;100.00;98982.06;15279741;19;20010;-53
2022/06/14 02:31:40;;;;;;;0.65;0.50;;;;;;;9.58;100.00;98975.28;15285406;19;20011;-54
2022/06/14 02:36:51;;;;;;;2.25;0.90;;;;;;;9.52;100.00;98982.06;15276596;19;20047;-54
2022/06/14 02:42:02;;;;;;;1.25;0.70;;;;;;;9.45;100.00;98981.78;15279345;19;20483;-55
2022/06/14 02:47:16;;;;;;;3.25;0.90;;;;;;;9.39;100.00;98995.78;15282492;19;20021;-54
2022/06/14 02:52:25;;;;;;;1.00;0.70;;;;;;;9.33;100.00;98993.66;15277320;19;20493;-53
2022/06/14 02:57:39;;;;;;;2.15;0.80;;;;;;;9.27;100.00;98986.13;15280668;19;20082;-53
2022/06/14 03:02:47;;;;;;;2.20;0.88;;;;;;;9.22;100.00;98976.66;15278695;19;20070;-53
2022/06/14 03:07:57;;;;;;;1.55;0.90;;;;;;;9.17;100.00;98975.38;15281120;19;20364;-52
2022/06/14 03:13:10;;;;;;;1.50;0.80;;;;;;;9.10;100.00;98977.75;15275370;19;20492;-57
2022/06/14 03:18:22;;;;;;;4.88;1.00;;;;;;;9.04;100.00;98991.75;15278795;19;20018;-55
2022/06/14 03:23:39;;;;;;;1.08;0.70;;;;;;;9.00;100.00;98984.94;15277066;19;20011;-57
2022/06/14 03:28:50;;;;;;;2.22;0.90;;;;;;;8.98;100.00;98985.06;15274734;19;20106;-50
2022/06/14 03:34:02;;;;;;;1.75;0.90;;;;;;;8.94;100.00;98995.25;15278013;19;20030;-51
2022/06/14 03:39:12;;;;;;;2.65;1.00;;;;;;;8.93;100.00;98981.97;15277332;19;20033;-54
2022/06/14 03:44:21;;;;;;;2.47;0.90;;;;;;;8.88;100.00;98989.56;15272025;19;20014;-55
2022/06/14 05:35:40;;;;;;;2.38;1.40;;;;;;;9.94;100.00;99013.19;15288033;19;20014;-85
2022/06/14 05:40:50;;;;;;;3.72;1.70;;;;;;;10.07;100.00;99013.75;15306957;19;20006;-85
2022/06/14 05:46:00;;;;;;;3.83;1.55;;;;;;;10.24;100.00;99014.88;15307108;19;20022;-85
2022/06/14 05:51:13;;;;;;;3.38;1.20;;;;;;;10.44;100.00;99020.25;15301147;19;20014;-84
2022/06/14 05:56:26;;;;;;;2.83;1.20;;;;;;;10.67;100.00;99014.50;15306020;19;20481;-83
2022/06/14 06:01:38;;;;;;;2.47;1.15;;;;;;;10.89;100.00;99018.66;15300171;19;20725;-82
2022/06/14 06:06:51;;;;;;;1.77;1.08;;;;;;;11.12;100.00;99008.34;15297274;19;20475;-83
2022/06/14 06:12:00;;;;;;;3.45;1.10;;;;;;;11.37;100.00;99020.25;15297238;19;20062;-83
2022/06/14 06:17:10;;;;;;;3.53;1.15;;;;;;;11.65;100.00;99013.97;15298564;19;20034;-84
2022/06/14 06:22:23;;;;;;;2.95;0.90;;;;;;;11.86;100.00;99024.47;15290470;19;20017;-83
2022/06/14 06:27:31;;;;;;;4.95;1.02;;;;;;;12.08;100.00;99025.00;15300630;19;20381;-84
2022/06/14 06:32:36;;;;;;;2.50;0.95;;;;;;;12.31;100.00;99031.59;15306470;19;20017;-84
2022/06/14 06:37:51;;;;;;;4.63;1.10;;;;;;;12.55;100.00;99024.69;15305225;19;20015;-84
2022/06/14 06:43:01;;;;;;;2.35;0.95;;;;;;;12.75;100.00;99019.06;15306719;19;20011;-83
2022/06/14 06:48:12;;;;;;;4.45;1.05;;;;;;;12.94;100.00;99016.13;15299847;19;20034;-82
2022/06/14 06:53:22;;;;;;;2.90;1.00;;;;;;;13.18;100.00;99019.94;15301289;19;20018;-83
2022/06/14 06:58:30;;;;;;;4.68;1.00;;;;;;;13.46;100.00;99019.72;15297954;19;20010;-82
2022/06/14 07:03:43;;;;;;;7.85;1.15;;;;;;;13.71;100.00;99026.03;15302830;19;20078;-83
2022/06/14 07:08:56;;;;;;;2.15;0.85;;;;;;;13.95;100.00;99018.09;15315511;19;20443;-83
2022/06/14 07:14:08;;;;;;;2.78;0.70;;;;;;;14.09;100.00;99019.28;15281383;19;20021;-80
2022/06/14 07:19:22;;;;;;;3.45;0.77;;;;;;;14.26;100.00;99010.13;15285638;19;20056;-80
2022/06/14 07:24:38;;;;;;;2.08;0.70;;;;;;;14.42;100.00;99021.97;15283295;19;20491;-80
2022/06/14 07:30:11;;;;;;;6.25;0.90;;;;;;;14.64;100.00;99015.84;15300457;19;20027;-79
2022/06/14 07:35:17;;;;;;;3.42;0.90;;;;;;;14.78;100.00;99019.72;15307393;19;20063;-78
2022/06/14 07:40:30;;;;;;;3.15;0.80;;;;;;;14.81;100.00;99013.13;15308194;19;20015;-77
2022/06/14 07:45:38;;;;;;;3.50;0.85;;;;;;;14.96;100.00;99010.53;15313559;19;20037;-77
2022/06/14 07:50:48;;;;;;;5.68;0.95;;;;;;;15.14;100.00;99010.28;15297781;19;20015;-79
2022/06/14 07:56:02;;;;;;;2.47;0.80;;;;;;;15.30;100.00;99001.22;15300486;19;20010;-78
2022/06/14 08:01:14;;;;;;;1.75;0.80;;;;;;;15.35;100.00;99004.22;15298792;19;20014;-77
2022/06/14 08:06:25;;;;;;;2.08;0.70;;;;;;;15.43;100.00;98997.06;15301996;19;20014;-79
2022/06/14 08:11:41;;;;;;;2.90;0.88;;;;;;;15.68;100.00;98998.63;15300289;19;20475;-80
2022/06/14 08:16:47;;;;;;;3.85;0.98;;;;;;;15.65;100.00;98996.25;15278971;19;20050;-77
2022/06/14 08:21:57;;;;;;;4.57;1.00;;;;;;;15.56;100.00;99002.78;15290165;19;20010;-78
2022/06/14 08:27:10;;;;;;;2.40;0.80;;;;;;;15.70;100.00;98995.72;15284706;19;20026;-79
2022/06/14 08:32:18;;;;;;;2.10;0.70;;;;;;;15.79;100.00;99000.06;15284548;19;20019;-78
2022/06/14 08:37:29;;;;;;;4.05;1.00;;;;;;;15.90;100.00;98990.69;15287966;19;20498;-80
2022/06/14 08:42:42;;;;;;;3.15;0.93;;;;;;;16.04;100.00;98990.91;15288715;19;20010;-78
2022/06/14 08:48:02;;;;;;;3.17;1.05;;;;;;;16.15;99.25;98983.16;15285241;19;20088;-76
2022/06/14 08:53:31;;;;;;;3.67;0.90;;;;;;;16.44;96.42;98986.97;15294851;19;20011;-78
2022/06/14 08:59:27;;;;;;;3.03;0.80;;;;;;;16.54;94.19;98986.69;15340912;19;20007;-77
2022/06/14 09:05:04;;;;;;;3.08;0.95;;;;;;;16.55;87.90;98993.81;15281636;19;20018;-77
2022/06/14 09:10:29;;;;;;;3.90;1.10;;;;;;;16.89;82.32;98989.69;15289773;19;20018;-79
2022/06/14 09:16:13;;;;;;;5.18;1.10;;;;;;;16.96;77.82;98983.53;15293117;19;20035;-80
2022/06/14 09:21:34;;;;;;;2.33;0.95;;;;;;;16.88;66.54;98977.13;15285268;19;20102;-79
2022/06/14 09:26:52;;;;;;;3.30;0.98;;;;;;;17.21;71.74;98978.63;15290130;19;20014;-78
2022/06/14 09:32:31;;;;;;;2.80;0.80;;;;;;;17.54;75.52;98976.28;15298006;19;20031;-79
2022/06/14 09:38:02;;;;;;;5.68;1.17;;;;;;;17.48;72.61;98962.59;15303913;19;20495;-79
2022/06/14 09:43:39;;;;;;;4.63;1.10;;;;;;;17.39;67.11;98962.72;15293856;19;20026;-78
2022/06/14 09:49:19;;;;;;;3.72;1.00;;;;;;;17.44;66.64;98959.41;15293810;19;20014;-78
2022/06/14 09:55:07;;;;;;;3.17;1.10;;;;;;;17.65;68.80;98971.38;15284569;19;20377;-79
2022/06/14 10:00:22;;;;;;;2.20;0.93;;;;;;;17.53;73.25;98963.69;15287549;19;20031;-78
2022/06/14 10:05:50;;;;;;;3.67;1.10;;;;;;;17.54;65.96;98954.50;15288917;19;20361;-79
2022/06/14 10:11:17;;;;;;;2.75;1.05;;;;;;;17.52;63.33;98951.13;15288926;19;20276;-79
2022/06/14 10:16:41;;;;;;;3.10;1.00;;;;;;;17.81;67.50;98949.31;15284604;19;20032;-80
2022/06/14 10:21:52;;;;;;;2.70;0.82;;;;;;;17.91;66.81;98950.88;15282903;19;20027;-80
2022/06/14 10:33:02;;;;;;;2.22;0.90;;;;;;;18.41;64.00;98935.31;15270319;19;20479;-79
2022/06/14 10:38:40;;;;;;;3.30;0.85;;;;;;;18.54;62.37;98931.84;15280394;19;20506;-78
2022/06/14 10:43:53;;;;;;;1.95;0.80;;;;;;;18.23;63.38;98937.72;15276735;19;20082;-78
2022/06/14 10:49:22;;;;;;;2.83;1.10;;;;;;;18.04;62.69;98942.84;15279447;19;20483;-78
2022/06/14 10:54:40;;;;;;;2.03;0.80;;;;;;;18.35;63.51;98941.59;15282316;19;20035;-78
2022/06/14 11:00:14;;;;;;;4.20;0.93;;;;;;;18.72;63.06;98927.75;15274186;19;20022;-78
2022/06/14 11:05:29;;;;;;;3.08;1.10;;;;;;;18.67;62.04;98928.34;15280340;19;20006;-79
2022/06/14 11:10:53;;;;;;;2.97;1.00;;;;;;;18.74;64.21;98925.66;15283299;19;20569;-79
2022/06/14 11:16:09;;;;;;;1.58;0.85;;;;;;;18.87;63.95;98916.72;15276299;19;20418;-79
2022/06/14 11:21:41;;;;;;;2.22;0.82;;;;;;;18.95;59.63;98916.56;15278436;19;20018;-80
2022/06/14 11:26:57;;;;;;;2.92;0.95;;;;;;;19.51;59.36;98910.00;15274266;19;20014;-80
2022/06/14 11:32:08;;;;;;;3.03;0.88;;;;;;;19.53;57.73;98907.88;15278425;19;20112;-79
2022/06/14 11:37:37;;;;;;;3.35;0.90;;;;;;;19.60;55.98;98905.16;15272490;19;20130;-56
2022/06/14 11:42:54;;;;;;;2.85;1.00;;;;;;;19.30;57.21;98902.81;15274147;19;20015;-57
2022/06/14 11:48:08;;;;;;;2.45;1.00;;;;;;;19.26;54.77;98893.34;15272023;19;20479;-54
2022/06/14 11:53:57;;;;;;;2.25;1.00;;;;;;;19.40;55.77;98900.50;15266781;19;20128;-64
2022/06/14 11:59:21;;;;;;;2.92;0.90;;;;;;;19.86;57.21;98890.72;15279545;19;20010;-62
2022/06/14 12:04:43;;;;;;;3.72;0.80;;;;;;;19.87;54.61;98891.53;15270347;19;20018;-63
2022/06/14 12:10:02;;;;;;;;;;;;;;;20.09;51.75;98883.97;15279948;19;20442;-63
2022/06/14 12:15:16;;;;;;;2.83;0.80;;;;;;;20.23;54.30;98895.72;15279379;19;19927;-63
2022/06/14 12:20:23;;;;;;;4.20;1.00;;;;;;;20.44;53.62;98880.97;15275019;19;20018;-61
2022/06/14 12:31:16;;;;;;;3.70;1.00;;;;;;;20.56;50.20;98878.41;15279337;19;20451;-62
2022/06/14 12:36:32;;;;;;;1.50;0.85;;;;;;;20.82;50.95;98871.19;15269226;19;20109;-61
2022/06/14 12:41:41;;;;;;;3.35;0.70;;;;;;;21.38;51.31;98860.53;15278471;19;20007;-65
2022/06/14 12:46:50;;;;;;;4.40;0.95;;;;;;;21.30;48.50;98867.13;15277928;19;20154;-65
2022/06/14 12:52:01;;;;;;;3.00;1.10;;;;;;;21.22;49.49;98856.44;15274290;19;20029;-61
2022/06/14 12:57:14;;;;;;;3.78;0.90;;;;;;;20.93;48.21;98856.81;15276644;19;20041;-60
2022/06/14 13:02:27;;;;;;;3.42;0.90;;;;;;;21.59;50.83;98842.03;15274488;19;20014;-62
2022/06/14 13:07:44;;;;;;;2.58;0.80;;;;;;;22.01;48.12;98836.88;15272603;19;20011;-62
2022/06/14 13:13:01;;;;;;;2.58;0.90;;;;;;;21.94;47.57;98830.59;15270484;19;20389;-63
2022/06/14 13:18:31;;;;;;;4.43;0.93;;;;;;;22.22;46.77;98823.78;15275745;19;20681;-61
2022/06/14 13:23:45;;;;;;;2.50;0.80;;;;;;;22.36;47.28;98819.81;15265744;19;20026;-62
2022/06/14 13:29:26;;;;;;;2.00;0.73;;;;;;;22.32;44.55;98815.84;15275516;19;20030;-65
2022/06/14 13:34:46;;;;;;;3.28;0.90;;;;;;;22.98;44.68;98812.53;15267829;19;20027;-64
2022/06/14 13:39:58;;;;;;;2.67;0.80;;;;;;;23.33;46.83;98809.09;15268755;19;20498;-67
2022/06/14 13:45:12;;;;;;;4.55;0.80;;;;;;;23.77;44.02;98811.56;15271232;19;20022;-57
2022/06/14 13:50:25;;;;;;;4.75;0.90;;;;;;;23.00;44.14;98813.97;15288209;19;20021;-63
2022/06/14 13:55:39;;;;;;;4.32;1.00;;;;;;;23.05;46.59;98816.88;15279732;19;20379;-60
2022/06/14 14:00:56;;;;;;;3.45;0.80;;;;;;;23.29;44.75;98808.72;15287515;19;20021;-61
2022/06/14 14:06:11;;;;;;;4.53;0.88;;;;;;;23.42;44.09;98804.09;15284723;19;20018;-61
2022/06/14 14:11:28;;;;;;;3.00;1.00;;;;;;;23.64;44.07;98802.44;15279599;19;20006;-62
2022/06/14 14:16:41;;;;;;;2.75;0.80;;;;;;;23.90;41.64;98793.97;15282665;19;20014;-64
2022/06/14 14:21:53;;;;;;;2.92;0.73;;;;;;;23.78;42.18;98788.47;15274496;19;20019;-65
2022/06/14 14:27:05;;;;;;;1.23;0.60;;;;;;;24.44;42.03;98782.78;15278580;19;20007;-65
2022/06/14 14:32:16;;;;;;;2.03;0.75;;;;;;;24.16;41.58;98782.50;15281161;19;20368;-65
2022/06/14 14:37:30;;;;;;;1.40;0.70;;;;;;;23.56;41.95;98778.06;15286297;19;20019;-64
2022/06/14 14:42:57;;;;;;;4.05;0.80;;;;;;;24.16;42.03;98778.91;15273699;19;20047;-62
2022/06/14 14:48:09;;;;;;;3.60;0.70;;;;;;;24.98;42.28;98774.25;15286783;19;20019;-63
2022/06/14 14:53:25;;;;;;;3.78;0.98;;;;;;;24.43;41.75;98772.84;15283452;19;20019;-61
2022/06/14 14:58:36;;;;;;;3.25;0.70;;;;;;;23.91;42.11;98763.47;15285236;19;20036;-59
2022/06/14 15:09:11;;;;;;;2.17;0.80;;;;;;;24.31;41.09;98748.13;15285473;19;20031;-63
2022/06/14 15:14:22;;;;;;;1.83;0.80;;;;;;;24.39;40.81;98753.22;15271863;19;20018;-63
2022/06/14 15:24:54;;;;;;;3.65;0.77;;;;;;;23.92;40.73;98734.88;15279828;19;20486;-62
2022/06/14 15:29:59;;;;;;;1.92;0.60;;;;;;;24.56;42.17;98734.00;15283608;19;20022;-63
2022/06/14 15:35:20;;;;;;;0.85;0.52;;;;;;;24.64;39.63;98729.22;15276193;19;20038;-63
2022/06/14 15:40:34;;;;;;;4.65;0.80;;;;;;;24.69;40.97;98723.81;15284383;19;20018;-63
2022/06/14 15:45:48;;;;;;;1.45;0.75;;;;;;;24.81;40.26;98716.34;15279269;19;20094;-64
2022/06/14 15:50:59;;;;;;;1.25;0.60;;;;;;;24.77;39.12;98718.75;15281424;19;20352;-63
2022/06/14 15:56:19;;;;;;;2.47;0.80;;;;;;;23.82;39.70;98718.13;15273287;19;20539;-60
2022/06/14 16:01:27;;;;;;;1.30;0.50;;;;;;;23.57;40.33;98712.88;15275313;19;20014;-62
2022/06/14 16:06:39;;;;;;;2.70;0.70;;;;;;;23.64;39.58;98703.44;15274061;19;20006;-63
2022/06/14 16:12:09;;;;;;;3.00;0.90;;;;;;;24.43;38.38;98701.25;15274112;19;20503;-64
2022/06/14 16:17:23;;;;;;;2.22;0.70;;;;;;;24.84;38.86;98699.31;15278380;19;20014;-66
2022/06/14 16:22:32;;;;;;;1.80;0.80;;;;;;;23.95;39.08;98698.63;15268182;19;20122;-62
2022/06/14 16:27:54;;;;;;;2.05;0.70;;;;;;;24.06;38.64;98693.34;15278130;19;20014;-62
2022/06/14 16:33:13;;;;;;;2.25;0.70;;;;;;;24.08;39.99;98685.69;15275886;19;20019;-63
2022/06/14 16:38:32;;;;;;;3.40;0.80;;;;;;;24.88;38.02;98681.19;15274203;19;20045;-64
2022/06/14 16:43:46;;;;;;;2.58;0.73;;;;;;;25.45;38.90;98682.16;15270862;19;20010;-65
2022/06/14 16:49:02;;;;;;;1.85;0.80;;;;;;;24.98;40.63;98682.47;15278274;19;20475;-62
2022/06/14 16:54:17;;;;;;;1.90;0.60;;;;;;;24.99;40.31;98675.88;15264075;19;20061;-64
2022/06/14 16:59:35;;;;;;;2.97;0.75;;;;;;;25.40;38.73;98676.50;15274118;19;20852;-58
2022/06/14 17:04:48;;;;;;;2.15;0.88;;;;;;;25.61;39.11;98674.06;15272589;19;20022;-63
2022/06/14 17:10:21;;;;;;;1.45;0.60;;;;;;;25.78;39.68;98663.84;15271702;19;20043;-62
2022/06/14 17:15:35;;;;;;;1.95;0.70;;;;;;;25.79;39.35;98665.53;15273917;19;20038;-64
2022/06/14 17:20:48;;;;;;;3.33;0.95;;;;;;;25.95;40.29;98673.97;15275600;19;20027;-63
2022/06/14 17:31:29;;;;;;;1.05;0.70;;;;;;;25.68;40.13;98672.81;15285668;19;20011;-62
2022/06/14 17:36:41;;;;;;;1.63;0.80;;;;;;;25.64;40.30;98665.31;15288693;19;20049;-63
2022/06/14 17:41:50;;;;;;;1.42;0.70;;;;;;;25.65;41.04;98669.72;15282202;19;20027;-63
2022/06/14 17:46:58;;;;;;;4.15;0.68;;;;;;;25.55;40.89;98670.41;15285754;19;20015;-64
2022/06/14 17:52:09;;;;;;;1.92;0.88;;;;;;;25.30;41.45;98674.41;15280118;19;20344;-55
2022/06/14 17:57:28;;;;;;;2.85;0.70;;;;;;;25.09;40.96;98673.28;15255009;19;20035;-58
2022/06/14 18:02:48;;;;;;;2.08;0.90;;;;;;;24.83;41.79;98675.59;15280353;19;20496;-60
2022/06/14 18:07:55;;;;;;;4.43;0.80;;;;;;;24.91;43.27;98680.69;15288204;19;20010;-58
2022/06/14 18:13:04;;;;;;;2.63;0.65;;;;;;;24.72;43.57;98668.22;15278475;19;20018;-60
2022/06/14 18:18:27;;;;;;;3.22;0.80;;;;;;;24.40;43.78;98676.97;15286344;19;20099;-60
2022/06/14 18:23:48;;;;;;;1.45;0.60;;;;;;;23.96;44.74;98672.78;15280835;19;20503;-61
2022/06/14 18:29:04;;;;;;;1.73;0.60;;;;;;;23.60;45.10;98682.97;15279141;19;20006;-59
2022/06/14 18:34:31;;;;;;;2.35;1.00;;;;;;;23.15;45.95;98672.53;15275431;19;20022;-60
2022/06/14 18:39:52;;;;;;;1.70;0.70;;;;;;;22.82;47.87;98676.66;15285992;19;20097;-59
2022/06/14 18:45:35;;;;;;;2.67;0.73;;;;;;;22.51;47.96;98679.44;15274041;19;20047;-60
2022/06/14 18:50:56;;;;;;;2.63;0.70;;;;;;;22.18;49.62;98680.69;15284259;19;20086;-60
2022/06/14 18:56:05;;;;;;;1.50;0.70;;;;;;;21.82;50.93;98676.91;15283515;19;20404;-61
2022/06/14 19:01:24;;;;;;;2.80;0.90;;;;;;;21.24;52.27;98679.78;15275677;19;20141;-56
2022/06/14 19:07:03;;;;;;;1.77;0.80;;;;;;;20.80;53.31;98683.53;15280769;19;20030;-61
2022/06/14 19:12:19;;;;;;;4.05;0.80;;;;;;;20.41;54.33;98687.09;15275452;19;20022;-61
2022/06/14 19:17:43;;;;;;;2.33;0.82;;;;;;;20.05;56.26;98694.00;15271974;19;20018;-60
2022/06/14 19:23:24;;;;;;;2.70;0.80;;;;;;;19.70;57.82;98689.63;15272195;19;20338;-61
2022/06/14 19:28:47;;;;;;;1.98;0.82;;;;;;;19.44;59.26;98701.47;15276425;19;20011;-61
2022/06/14 19:33:58;;;;;;;1.67;0.68;;;;;;;19.22;61.39;98693.50;15271303;19;20011;-60
2022/06/14 19:39:16;;;;;;;2.38;0.90;;;;;;;19.03;63.06;98700.66;15277919;19;20140;-61
2022/06/14 19:44:27;;;;;;;1.85;0.80;;;;;;;18.90;66.72;98701.47;15274483;19;20015;-62
2022/06/14 20:00:31;;;;;;;1.48;0.70;;;;;;;18.28;74.18;98704.25;14768199;19;10000949;-58
2022/06/14 20:05:42;;;;;;;3.03;0.90;;;;;;;18.15;74.66;98718.69;15271818;19;20019;-59
2022/06/14 20:10:53;;;;;;;1.65;0.80;;;;;;;17.94;75.74;98713.28;15280131;19;20515;-59
2022/06/14 20:16:06;;;;;;;2.88;0.98;;;;;;;17.79;75.63;98714.28;15276972;19;20021;-59
2022/06/14 20:21:14;;;;;;;2.05;0.70;;;;;;;17.68;76.05;98714.84;15275688;19;20483;-58
2022/06/14 20:26:27;;;;;;;2.95;0.75;;;;;;;17.50;76.03;98709.91;15275568;19;20010;-56
2022/06/14 20:31:48;;;;;;;3.10;0.90;;;;;;;17.34;76.09;98714.63;15277868;19;20014;-61
2022/06/14 20:37:10;;;;;;;3.63;0.82;;;;;;;17.22;76.98;98711.59;15269878;19;20007;-61
2022/06/14 20:42:22;;;;;;;3.65;0.88;;;;;;;17.15;78.11;98713.41;15273790;19;20354;-57
2022/06/14 20:47:29;;;;;;;2.10;0.70;;;;;;;17.04;79.78;98713.94;15276900;19;20007;-57
2022/06/14 20:52:34;;;;;;;2.78;0.90;;;;;;;16.94;81.96;98704.25;15275532;19;20018;-59
2022/06/14 20:57:45;;;;;;;5.03;0.90;;;;;;;16.83;83.54;98710.19;15280040;19;20011;-57
2022/06/14 21:02:51;;;;;;;2.17;0.80;;;;;;;16.73;84.58;98712.38;15289201;19;20584;-56
2022/06/14 21:07:57;;;;;;;2.80;0.90;;;;;;;16.64;85.70;98704.34;15285551;19;20820;-56
2022/06/14 21:13:05;;;;;;;2.33;0.80;;;;;;;16.61;86.68;98712.91;15286953;19;20038;-57
2022/06/14 21:18:11;;;;;;;3.80;0.98;;;;;;;16.53;87.62;98718.44;15291450;19;20113;-57
2022/06/14 21:23:21;;;;;;;2.55;0.90;;;;;;;16.47;89.27;98713.78;15286913;19;20027;-58
2022/06/14 21:28:30;;;;;;;4.50;1.13;;;;;;;16.40;91.58;98712.88;15285596;19;20054;-58
2022/06/14 21:33:35;;;;;;;1.95;0.90;;;;;;;16.38;91.89;98714.94;15283623;19;20038;-58
2022/06/14 21:38:51;;;;;;;6.88;1.10;;;;;;;16.33;97.16;98726.41;15289941;19;20321;-61
2022/06/14 21:44:03;;;;;;;3.13;1.00;;;;;;;16.22;99.18;98721.47;15275634;19;20546;-61
2022/06/14 21:49:09;;;;;;;2.10;0.95;;;;;;;16.10;98.54;98716.50;15289206;19;20043;-60
2022/06/14 21:54:15;;;;;;;2.53;1.00;;;;;;;15.95;100.00;98712.97;15282203;19;20035;-61
2022/06/14 21:59:31;;;;;;;1.95;0.90;;;;;;;15.72;100.00;98713.88;15284500;19;20034;-59
2022/06/14 22:04:36;;;;;;;3.17;0.90;;;;;;;15.49;100.00;98717.53;15280818;19;20340;-57
2022/06/14 22:09:42;;;;;;;3.03;1.23;;;;;;;15.43;100.00;98714.72;15286634;19;20026;-54
2022/06/14 22:14:50;;;;;;;5.28;1.10;;;;;;;15.36;100.00;98720.84;15276101;19;20027;-56
2022/06/14 22:19:55;;;;;;;5.00;1.00;;;;;;;15.34;100.00;98709.38;15287023;19;20018;-58
2022/06/14 22:25:00;;;;;;;6.03;1.00;;;;;;;15.33;100.00;98715.81;15278454;19;20047;-56
2022/06/14 22:30:15;;;;;;;5.05;1.15;;;;;;;15.28;100.00;98718.22;15286674;19;20019;-58
2022/06/14 22:35:22;;;;;;;3.53;1.10;;;;;;;15.09;100.00;98715.03;15279940;19;20035;-58
2022/06/14 22:40:30;;;;;;;3.53;0.88;;;;;;;14.97;100.00;98723.75;15279052;19;20082;-60
2022/06/14 22:45:36;;;;;;;3.85;1.10;;;;;;;14.85;100.00;98716.06;15273606;19;20015;-61
2022/06/14 22:50:42;;;;;;;1.50;0.70;;;;;;;14.75;100.00;98713.63;15282856;19;20074;-61
2022/06/14 22:55:51;;;;;;;2.47;0.93;;;;;;;14.59;100.00;98711.81;15282895;19;20010;-61
2022/06/14 23:00:57;;;;;;;3.22;1.02;;;;;;;14.45;100.00;98710.72;15283890;19;20026;-56
2022/06/14 23:06:04;;;;;;;5.13;1.00;;;;;;;14.37;100.00;98707.22;15276921;19;20031;-61
2022/06/14 23:11:13;;;;;;;3.88;1.00;;;;;;;14.26;100.00;98713.91;15281893;19;20061;-59
2022/06/14 23:16:19;;;;;;;3.28;1.02;;;;;;;14.12;100.00;98705.50;15278780;19;20588;-59
2022/06/14 23:21:24;;;;;;;3.20;0.88;;;;;;;14.03;100.00;98701.97;15275040;19;20019;-59
2022/06/14 23:26:32;;;;;;;2.58;0.80;;;;;;;13.97;100.00;98701.84;15279997;19;20014;-61
2022/06/14 23:31:37;;;;;;;4.05;0.90;;;;;;;13.92;100.00;98698.81;15282473;19;20798;-60
2022/06/14 23:36:43;;;;;;;1.92;0.90;;;;;;;13.86;100.00;98695.78;15276279;19;20035;-61
2022/06/14 23:41:51;;;;;;;2.58;1.08;;;;;;;13.84;100.00;98686.16;15281022;19;20014;-61
2022/06/14 23:46:56;;;;;;;1.83;0.90;;;;;;;13.79;100.00;98685.81;15280479;19;20026;-60
2022/06/14 23:52:02;;;;;;;4.18;1.00;;;;;;;13.77;100.00;98677.03;15271167;19;20011;-57
2022/06/14 23:57:10;;;;;;;2.60;1.02;;;;;;;13.76;100.00;98672.66;15279368;19;20018;-58
